Gdf Suez North Sea — HPSQ — position and weather

sailwx.info

Track history (hours):
 
Tides and Currents Weather Stations Pressure Air Temp Water Temp Dewpoint Dewpoint Depression Visibility Wind Speed Wind Dir Waves Ship Positions

Gdf Suez North Sea

Last reported at 2017-Apr-08 23:03 UTC. Time now 2017-May-24 00:34 UTC.
Position N 07°12' W 015°08'.
Warning: this ship's position is 45 days out of date.

Length 190 m; draft 9.5 m.

Type: Cargo ship. MMSI: 373341000.

Date/timePositionNaut miles runAvg speedWind from/ knotsBaromVisibWave heightAir tempDewpointWater temp
2017-Apr-08 23:03N 07°12' W 015°08'012.8
2017-Apr-08 23:00N 07°12' W 015°08'612.9
2017-Apr-08 22:30N 07°15' W 015°13'812.9
2017-Apr-08 21:55N 07°20' W 015°20'512.9
2017-Apr-08 21:30N 07°22' W 015°24'612.9
2017-Apr-08 21:00N 07°26' W 015°30'612.9
2017-Apr-08 20:30N 07°29' W 015°35'612.7
2017-Apr-08 20:00N 07°33' W 015°41'612.5
2017-Apr-08 19:30N 07°36' W 015°46'612.5
2017-Apr-08 19:00N 07°39' W 015°51'612.5
2017-Apr-08 18:30N 07°43' W 015°57'612.6
2017-Apr-08 18:01N 07°46' W 016°02'713.2
2017-Apr-08 17:30N 07°49' W 016°08'612.9
2017-Apr-08 17:00N 07°53' W 016°13'2112.9
2017-Apr-08 15:20N 08°05' W 016°31'412.3
2017-Apr-08 14:59N 08°07' W 016°35'1312.5
2017-Apr-08 13:55N 08°14' W 016°47'512.5
2017-Apr-08 13:30N 08°17' W 016°51'612.6
2017-Apr-08 13:00N 08°20' W 016°56'612.4
2017-Apr-08 12:30N 08°24' W 017°02'612.3
2017-Apr-08 12:00N 08°27' W 017°07'612.3
2017-Apr-08 11:30N 08°30' W 017°12'3212.3
2017-Apr-08 08:55N 08°47' W 017°39'612.3
2017-Apr-08 08:26N 08°50' W 017°44'512.4
2017-Apr-08 08:00N 08°53' W 017°49'612.2
2017-Apr-08 07:30N 08°56' W 017°54'811.5
2017-Apr-08 06:50N 09°01' W 018°00'412.3
2017-Apr-08 06:30N 09°05' W 018°01'2012.3
2017-Apr-08 04:51N 09°25' W 018°00'612.5
2017-Apr-08 04:21N 09°32' W 017°60'3412.6
2017-Apr-08 01:40N 10°06' W 018°00'1412.6
2017-Apr-08 00:33N 10°20' W 017°60'212.3
2017-Apr-08 00:24N 10°22' W 017°60'22012.5
2017-Apr-07 06:45N 14°02' W 017°60'3912.3
2017-Apr-07 03:36N 14°41' W 017°58'112.5
2017-Apr-07 03:30N 14°42' W 017°58'612.5
2017-Apr-07 03:00N 14°48' W 017°58'612.3
2017-Apr-07 02:29N 14°54' W 018°00'612.2
2017-Apr-07 02:00N 15°00' W 017°60'612.4
2017-Apr-07 01:30N 15°06' W 017°60'612.2
2017-Apr-07 01:00N 15°12' W 017°60'1711.8
2017-Apr-06 23:36N 15°29' W 017°60'112.1
2017-Apr-06 23:30N 15°30' W 017°60'612.2
2017-Apr-06 23:00N 15°36' W 018°00'612.0
2017-Apr-06 22:30N 15°42' W 018°00'611.9
2017-Apr-06 22:00N 15°48' W 018°00'3712.4
2017-Apr-06 18:59N 16°25' W 018°00'612.3
2017-Apr-06 18:30N 16°31' W 017°60'1912.5
2017-Apr-06 17:00N 16°50' W 017°60'30112.3
2017-Apr-05 16:35N 21°51' W 018°00'112.3
2017-Apr-05 16:30N 21°52' W 018°00'4712.9
2017-Apr-05 12:51N 22°39' W 018°00'412.6
2017-Apr-05 12:30N 22°44' W 018°00'27112.4
2017-Apr-04 14:36N 26°46' W 015°46'3112.8
2017-Apr-04 12:10N 27°13' W 015°30'313.0
2017-Apr-04 11:58N 27°16' W 015°28'1512.9
2017-Apr-04 10:49N 27°28' W 015°20'613.0
2017-Apr-04 10:24N 27°33' W 015°17'512.9
2017-Apr-04 10:00N 27°38' W 015°14'612.5
2017-Apr-04 09:30N 27°43' W 015°11'26 3.0
2017-Apr-04 00:54N 28°06' W 015°24'0 0.0
2017-Apr-03 23:51N 28°06' W 015°24'0 0.0
2017-Apr-03 22:26N 28°06' W 015°24'0 0.0
2017-Apr-03 21:45N 28°06' W 015°24'0 0.0
2017-Apr-03 21:18N 28°06' W 015°24'0 0.0
2017-Apr-03 20:54N 28°06' W 015°24'0 0.0
2017-Apr-03 20:14N 28°06' W 015°24'0 0.0
2017-Apr-03 19:20N 28°06' W 015°24'0 0.0
2017-Apr-03 18:53N 28°06' W 015°24'0 0.0
2017-Apr-03 18:29N 28°06' W 015°24'0 0.0
2017-Apr-03 17:40N 28°06' W 015°24'0 0.1
2017-Apr-03 17:22N 28°06' W 015°24'0 0.0
2017-Apr-03 12:00N 28°06' W 015°24'0 0.0
2017-Apr-03 11:30N 28°06' W 015°24'0 0.0
2017-Apr-03 11:00N 28°06' W 015°24'0 0.0
2017-Apr-03 10:30N 28°06' W 015°24'0 0.0
2017-Apr-03 10:00N 28°06' W 015°24'0 0.4
2017-Apr-03 09:30N 28°06' W 015°24'1 2.5
2017-Apr-03 09:00N 28°06' W 015°23'5 3.3
2017-Apr-03 07:27N 28°07' W 015°17'611.9
2017-Apr-03 06:59N 28°07' W 015°11'612.5
2017-Apr-03 06:30N 28°07' W 015°04'710.5
2017-Apr-03 05:52N 28°12' W 014°58'3712.6
2017-Apr-03 02:54N 28°43' W 014°35'512.3
2017-Apr-03 02:30N 28°47' W 014°32'612.4
2017-Apr-03 02:00N 28°52' W 014°28'712.6
2017-Apr-03 01:29N 28°57' W 014°23'612.5
2017-Apr-03 01:00N 29°02' W 014°19'712.4
2017-Apr-03 00:29N 29°07' W 014°15'612.4
2017-Apr-03 00:00N 29°12' W 014°11'612.3
2017-Apr-02 23:31N 29°17' W 014°07'612.4
2017-Apr-02 23:00N 29°22' W 014°02'612.6
2017-Apr-02 22:30N 29°27' W 013°58'1112.6
2017-Apr-02 21:36N 29°36' W 013°51'112.4
2017-Apr-02 21:30N 29°37' W 013°50'5512.4
2017-Apr-02 17:04N 30°18' W 013°08'112.1
2017-Apr-02 16:57N 30°19' W 013°06'612.1
2017-Apr-02 16:27N 30°23' W 013°01'278 5.7
2017-Mar-31 16:02N 33°07' W 008°38'0 0.1
2017-Mar-31 15:56N 33°07' W 008°38'0 0.0
2017-Mar-31 15:29N 33°07' W 008°38'0 0.0
2017-Mar-31 13:47N 33°07' W 008°38'0 0.0
2017-Mar-31 13:29N 33°07' W 008°38'0 0.0
2017-Mar-31 12:47N 33°07' W 008°38'0 0.0
2017-Mar-31 11:05N 33°07' W 008°38'0 0.0
2017-Mar-30 16:14N 33°07' W 008°38'  
Track history (hours):
 
Tides and Currents Weather Stations Pressure Air Temp Water Temp Dewpoint Dewpoint Depression Visibility Wind Speed Wind Dir Waves Ship Positions

Gdf Suez North Sea

Last reported at 2017-Apr-08 23:03 UTC. Time now 2017-May-24 00:34 UTC.
Position N 07°12' W 015°08'.
Warning: this ship's position is 45 days out of date.

Length 190 m; draft 9.5 m.

Type: Cargo ship. MMSI: 373341000.

Date/timePositionNaut miles runAvg speedWind from/ knotsBaromVisibWave heightAir tempDewpointWater temp
2017-Apr-08 23:03N 07°12' W 015°08'012.8
2017-Apr-08 23:00N 07°12' W 015°08'612.9
2017-Apr-08 22:30N 07°15' W 015°13'812.9
2017-Apr-08 21:55N 07°20' W 015°20'512.9
2017-Apr-08 21:30N 07°22' W 015°24'612.9
2017-Apr-08 21:00N 07°26' W 015°30'612.9
2017-Apr-08 20:30N 07°29' W 015°35'612.7
2017-Apr-08 20:00N 07°33' W 015°41'612.5
2017-Apr-08 19:30N 07°36' W 015°46'612.5
2017-Apr-08 19:00N 07°39' W 015°51'612.5
2017-Apr-08 18:30N 07°43' W 015°57'612.6
2017-Apr-08 18:01N 07°46' W 016°02'713.2
2017-Apr-08 17:30N 07°49' W 016°08'612.9
2017-Apr-08 17:00N 07°53' W 016°13'2112.9
2017-Apr-08 15:20N 08°05' W 016°31'412.3
2017-Apr-08 14:59N 08°07' W 016°35'1312.5
2017-Apr-08 13:55N 08°14' W 016°47'512.5
2017-Apr-08 13:30N 08°17' W 016°51'612.6
2017-Apr-08 13:00N 08°20' W 016°56'612.4
2017-Apr-08 12:30N 08°24' W 017°02'612.3
2017-Apr-08 12:00N 08°27' W 017°07'612.3
2017-Apr-08 11:30N 08°30' W 017°12'3212.3
2017-Apr-08 08:55N 08°47' W 017°39'612.3
2017-Apr-08 08:26N 08°50' W 017°44'512.4
2017-Apr-08 08:00N 08°53' W 017°49'612.2
2017-Apr-08 07:30N 08°56' W 017°54'811.5
2017-Apr-08 06:50N 09°01' W 018°00'412.3
2017-Apr-08 06:30N 09°05' W 018°01'2012.3
2017-Apr-08 04:51N 09°25' W 018°00'612.5
2017-Apr-08 04:21N 09°32' W 017°60'3412.6
2017-Apr-08 01:40N 10°06' W 018°00'1412.6
2017-Apr-08 00:33N 10°20' W 017°60'212.3
2017-Apr-08 00:24N 10°22' W 017°60'22012.5
2017-Apr-07 06:45N 14°02' W 017°60'3912.3
2017-Apr-07 03:36N 14°41' W 017°58'112.5
2017-Apr-07 03:30N 14°42' W 017°58'612.5
2017-Apr-07 03:00N 14°48' W 017°58'612.3
2017-Apr-07 02:29N 14°54' W 018°00'612.2
2017-Apr-07 02:00N 15°00' W 017°60'612.4
2017-Apr-07 01:30N 15°06' W 017°60'612.2
2017-Apr-07 01:00N 15°12' W 017°60'1711.8
2017-Apr-06 23:36N 15°29' W 017°60'112.1
2017-Apr-06 23:30N 15°30' W 017°60'612.2
2017-Apr-06 23:00N 15°36' W 018°00'612.0
2017-Apr-06 22:30N 15°42' W 018°00'611.9
2017-Apr-06 22:00N 15°48' W 018°00'3712.4
2017-Apr-06 18:59N 16°25' W 018°00'612.3
2017-Apr-06 18:30N 16°31' W 017°60'1912.5
2017-Apr-06 17:00N 16°50' W 017°60'30112.3
2017-Apr-05 16:35N 21°51' W 018°00'112.3
2017-Apr-05 16:30N 21°52' W 018°00'4712.9
2017-Apr-05 12:51N 22°39' W 018°00'412.6
2017-Apr-05 12:30N 22°44' W 018°00'27112.4
2017-Apr-04 14:36N 26°46' W 015°46'3112.8
2017-Apr-04 12:10N 27°13' W 015°30'313.0
2017-Apr-04 11:58N 27°16' W 015°28'1512.9
2017-Apr-04 10:49N 27°28' W 015°20'613.0
2017-Apr-04 10:24N 27°33' W 015°17'512.9
2017-Apr-04 10:00N 27°38' W 015°14'612.5
2017-Apr-04 09:30N 27°43' W 015°11'26 3.0
2017-Apr-04 00:54N 28°06' W 015°24'0 0.0
2017-Apr-03 23:51N 28°06' W 015°24'0 0.0
2017-Apr-03 22:26N 28°06' W 015°24'0 0.0
2017-Apr-03 21:45N 28°06' W 015°24'0 0.0
2017-Apr-03 21:18N 28°06' W 015°24'0 0.0
2017-Apr-03 20:54N 28°06' W 015°24'0 0.0
2017-Apr-03 20:14N 28°06' W 015°24'0 0.0
2017-Apr-03 19:20N 28°06' W 015°24'0 0.0
2017-Apr-03 18:53N 28°06' W 015°24'0 0.0
2017-Apr-03 18:29N 28°06' W 015°24'0 0.0
2017-Apr-03 17:40N 28°06' W 015°24'0 0.1
2017-Apr-03 17:22N 28°06' W 015°24'0 0.0
2017-Apr-03 12:00N 28°06' W 015°24'0 0.0
2017-Apr-03 11:30N 28°06' W 015°24'0 0.0
2017-Apr-03 11:00N 28°06' W 015°24'0 0.0
2017-Apr-03 10:30N 28°06' W 015°24'0 0.0
2017-Apr-03 10:00N 28°06' W 015°24'0 0.4
2017-Apr-03 09:30N 28°06' W 015°24'1 2.5
2017-Apr-03 09:00N 28°06' W 015°23'5 3.3
2017-Apr-03 07:27N 28°07' W 015°17'611.9
2017-Apr-03 06:59N 28°07' W 015°11'612.5
2017-Apr-03 06:30N 28°07' W 015°04'710.5
2017-Apr-03 05:52N 28°12' W 014°58'3712.6
2017-Apr-03 02:54N 28°43' W 014°35'512.3
2017-Apr-03 02:30N 28°47' W 014°32'612.4
2017-Apr-03 02:00N 28°52' W 014°28'712.6
2017-Apr-03 01:29N 28°57' W 014°23'612.5
2017-Apr-03 01:00N 29°02' W 014°19'712.4
2017-Apr-03 00:29N 29°07' W 014°15'612.4
2017-Apr-03 00:00N 29°12' W 014°11'612.3
2017-Apr-02 23:31N 29°17' W 014°07'612.4
2017-Apr-02 23:00N 29°22' W 014°02'612.6
2017-Apr-02 22:30N 29°27' W 013°58'1112.6
2017-Apr-02 21:36N 29°36' W 013°51'112.4
2017-Apr-02 21:30N 29°37' W 013°50'5512.4
2017-Apr-02 17:04N 30°18' W 013°08'112.1
2017-Apr-02 16:57N 30°19' W 013°06'612.1
2017-Apr-02 16:27N 30°23' W 013°01'278 5.7
2017-Mar-31 16:02N 33°07' W 008°38'0 0.1
2017-Mar-31 15:56N 33°07' W 008°38'0 0.0
2017-Mar-31 15:29N 33°07' W 008°38'0 0.0
2017-Mar-31 13:47N 33°07' W 008°38'0 0.0
2017-Mar-31 13:29N 33°07' W 008°38'0 0.0
2017-Mar-31 12:47N 33°07' W 008°38'0 0.0
2017-Mar-31 11:05N 33°07' W 008°38'0 0.0
2017-Mar-30 16:14N 33°07' W 008°38'  

Dump ship's entire track history